sensor_id;sensor_type;location;lat;lon;timestamp;temperature;humidity
17208;DHT22;8720;48.488;9.202;2022-12-26T00:00:35;11.60;62.20
17208;DHT22;8720;48.488;9.202;2022-12-26T00:03:03;11.60;62.30
17208;DHT22;8720;48.488;9.202;2022-12-26T00:05:34;11.60;62.30
17208;DHT22;8720;48.488;9.202;2022-12-26T00:08:04;11.60;61.90
17208;DHT22;8720;48.488;9.202;2022-12-26T00:10:32;11.50;62.00
17208;DHT22;8720;48.488;9.202;2022-12-26T00:12:59;11.50;62.30
17208;DHT22;8720;48.488;9.202;2022-12-26T00:15:27;11.50;62.30
17208;DHT22;8720;48.488;9.202;2022-12-26T00:17:54;11.40;62.30
17208;DHT22;8720;48.488;9.202;2022-12-26T00:20:21;11.40;62.40
17208;DHT22;8720;48.488;9.202;2022-12-26T00:22:48;11.40;62.50
17208;DHT22;8720;48.488;9.202;2022-12-26T00:25:17;11.30;63.10
17208;DHT22;8720;48.488;9.202;2022-12-26T00:27:44;11.30;62.30
17208;DHT22;8720;48.488;9.202;2022-12-26T00:30:12;11.30;62.60
17208;DHT22;8720;48.488;9.202;2022-12-26T00:32:39;11.30;62.50
17208;DHT22;8720;48.488;9.202;2022-12-26T00:35:07;11.30;62.50
17208;DHT22;8720;48.488;9.202;2022-12-26T00:37:35;11.30;62.50
17208;DHT22;8720;48.488;9.202;2022-12-26T00:40:03;11.30;62.60
17208;DHT22;8720;48.488;9.202;2022-12-26T00:42:33;11.20;62.40
17208;DHT22;8720;48.488;9.202;2022-12-26T00:45:00;11.20;62.20
17208;DHT22;8720;48.488;9.202;2022-12-26T00:47:28;11.20;62.60
17208;DHT22;8720;48.488;9.202;2022-12-26T00:49:55;11.20;63.30
17208;DHT22;8720;48.488;9.202;2022-12-26T00:52:22;11.10;62.80
17208;DHT22;8720;48.488;9.202;2022-12-26T00:54:50;11.20;63.00
17208;DHT22;8720;48.488;9.202;2022-12-26T00:57:17;11.20;62.90
17208;DHT22;8720;48.488;9.202;2022-12-26T00:59:45;11.20;62.90
17208;DHT22;8720;48.488;9.202;2022-12-26T01:02:12;11.20;62.70
17208;DHT22;8720;48.488;9.202;2022-12-26T01:04:54;11.10;62.70
17208;DHT22;8720;48.488;9.202;2022-12-26T01:07:21;11.10;62.80
17208;DHT22;8720;48.488;9.202;2022-12-26T01:09:48;11.10;62.80
17208;DHT22;8720;48.488;9.202;2022-12-26T01:12:15;11.00;63.00
17208;DHT22;8720;48.488;9.202;2022-12-26T01:14:42;11.00;63.20
17208;DHT22;8720;48.488;9.202;2022-12-26T01:17:12;11.00;63.40
17208;DHT22;8720;48.488;9.202;2022-12-26T01:19:39;11.10;63.70
17208;DHT22;8720;48.488;9.202;2022-12-26T01:22:06;11.10;63.90
17208;DHT22;8720;48.488;9.202;2022-12-26T01:24:33;11.10;64.00
17208;DHT22;8720;48.488;9.202;2022-12-26T01:27:01;11.20;64.20
17208;DHT22;8720;48.488;9.202;2022-12-26T01:29:28;11.20;64.10
17208;DHT22;8720;48.488;9.202;2022-12-26T01:31:56;11.30;64.10
17208;DHT22;8720;48.488;9.202;2022-12-26T01:34:24;11.30;63.80
17208;DHT22;8720;48.488;9.202;2022-12-26T01:36:51;11.30;64.00
17208;DHT22;8720;48.488;9.202;2022-12-26T01:39:19;11.40;63.80
17208;DHT22;8720;48.488;9.202;2022-12-26T01:41:47;11.40;63.70
17208;DHT22;8720;48.488;9.202;2022-12-26T01:44:57;11.40;63.50
17208;DHT22;8720;48.488;9.202;2022-12-26T01:47:41;11.40;62.30
17208;DHT22;8720;48.488;9.202;2022-12-26T01:50:28;11.40;62.60
17208;DHT22;8720;48.488;9.202;2022-12-26T01:53:04;11.40;62.60
17208;DHT22;8720;48.488;9.202;2022-12-26T01:55:36;11.30;63.10
17208;DHT22;8720;48.488;9.202;2022-12-26T01:58:07;11.30;63.30
17208;DHT22;8720;48.488;9.202;2022-12-26T02:00:38;11.30;63.30
17208;DHT22;8720;48.488;9.202;2022-12-26T02:03:07;11.20;63.40
17208;DHT22;8720;48.488;9.202;2022-12-26T02:05:56;11.20;63.20
17208;DHT22;8720;48.488;9.202;2022-12-26T02:08:28;11.20;63.20
17208;DHT22;8720;48.488;9.202;2022-12-26T02:11:05;11.20;63.00
17208;DHT22;8720;48.488;9.202;2022-12-26T02:13:40;11.10;62.70
17208;DHT22;8720;48.488;9.202;2022-12-26T02:16:10;11.00;62.70
17208;DHT22;8720;48.488;9.202;2022-12-26T02:18:42;11.00;62.80
17208;DHT22;8720;48.488;9.202;2022-12-26T02:21:25;10.90;62.70
17208;DHT22;8720;48.488;9.202;2022-12-26T02:24:35;10.80;62.60
17208;DHT22;8720;48.488;9.202;2022-12-26T02:27:34;10.80;62.60
17208;DHT22;8720;48.488;9.202;2022-12-26T02:30:30;10.80;63.60
17208;DHT22;8720;48.488;9.202;2022-12-26T02:33:26;10.80;63.80
17208;DHT22;8720;48.488;9.202;2022-12-26T02:36:20;10.90;63.80
17208;DHT22;8720;48.488;9.202;2022-12-26T02:39:05;10.90;64.00
17208;DHT22;8720;48.488;9.202;2022-12-26T02:41:46;11.00;64.40
17208;DHT22;8720;48.488;9.202;2022-12-26T02:44:26;11.00;64.50
17208;DHT22;8720;48.488;9.202;2022-12-26T02:47:24;11.10;64.60
17208;DHT22;8720;48.488;9.202;2022-12-26T02:50:03;11.20;64.40
17208;DHT22;8720;48.488;9.202;2022-12-26T02:53:05;11.30;65.30
17208;DHT22;8720;48.488;9.202;2022-12-26T02:55:59;11.40;64.20
17208;DHT22;8720;48.488;9.202;2022-12-26T02:58:55;11.40;64.40
17208;DHT22;8720;48.488;9.202;2022-12-26T03:04:22;11.50;65.00
17208;DHT22;8720;48.488;9.202;2022-12-26T03:07:14;11.50;64.50
17208;DHT22;8720;48.488;9.202;2022-12-26T03:10:14;11.60;64.30
17208;DHT22;8720;48.488;9.202;2022-12-26T03:13:06;11.50;63.40
17208;DHT22;8720;48.488;9.202;2022-12-26T03:15:44;11.50;63.90
17208;DHT22;8720;48.488;9.202;2022-12-26T03:18:37;11.50;63.80
17208;DHT22;8720;48.488;9.202;2022-12-26T03:21:11;11.50;64.70
17208;DHT22;8720;48.488;9.202;2022-12-26T03:23:43;11.40;63.80
17208;DHT22;8720;48.488;9.202;2022-12-26T03:26:17;11.40;64.10
17208;DHT22;8720;48.488;9.202;2022-12-26T03:29:07;11.50;64.20
17208;DHT22;8720;48.488;9.202;2022-12-26T03:31:54;11.50;64.40
17208;DHT22;8720;48.488;9.202;2022-12-26T03:34:22;11.50;64.70
17208;DHT22;8720;48.488;9.202;2022-12-26T03:37:00;11.50;64.60
17208;DHT22;8720;48.488;9.202;2022-12-26T03:40:01;11.60;64.10
17208;DHT22;8720;48.488;9.202;2022-12-26T03:42:58;11.60;64.00
17208;DHT22;8720;48.488;9.202;2022-12-26T03:45:54;11.60;64.40
17208;DHT22;8720;48.488;9.202;2022-12-26T03:48:50;11.70;64.40
17208;DHT22;8720;48.488;9.202;2022-12-26T03:51:43;11.80;64.00
17208;DHT22;8720;48.488;9.202;2022-12-26T03:54:40;11.80;64.30
17208;DHT22;8720;48.488;9.202;2022-12-26T03:57:34;11.90;64.20
17208;DHT22;8720;48.488;9.202;2022-12-26T04:00:25;12.00;63.90
17208;DHT22;8720;48.488;9.202;2022-12-26T04:03:13;12.10;64.30
17208;DHT22;8720;48.488;9.202;2022-12-26T04:06:01;12.10;64.50
17208;DHT22;8720;48.488;9.202;2022-12-26T04:08:53;12.20;64.20
17208;DHT22;8720;48.488;9.202;2022-12-26T04:11:45;12.30;64.00
17208;DHT22;8720;48.488;9.202;2022-12-26T04:14:36;12.30;64.10
17208;DHT22;8720;48.488;9.202;2022-12-26T04:17:30;12.40;63.70
17208;DHT22;8720;48.488;9.202;2022-12-26T04:20:26;12.40;63.60
17208;DHT22;8720;48.488;9.202;2022-12-26T04:23:03;12.40;63.60
17208;DHT22;8720;48.488;9.202;2022-12-26T04:25:58;12.50;63.30
17208;DHT22;8720;48.488;9.202;2022-12-26T04:28:48;12.50;63.20
17208;DHT22;8720;48.488;9.202;2022-12-26T04:31:37;12.60;63.80
17208;DHT22;8720;48.488;9.202;2022-12-26T04:34:31;12.60;63.10
17208;DHT22;8720;48.488;9.202;2022-12-26T04:37:25;12.60;62.90
17208;DHT22;8720;48.488;9.202;2022-12-26T04:40:18;12.70;63.00
17208;DHT22;8720;48.488;9.202;2022-12-26T04:43:06;12.70;62.60
17208;DHT22;8720;48.488;9.202;2022-12-26T04:45:54;12.70;63.10
17208;DHT22;8720;48.488;9.202;2022-12-26T04:48:24;12.80;62.80
17208;DHT22;8720;48.488;9.202;2022-12-26T04:51:09;12.80;62.90
17208;DHT22;8720;48.488;9.202;2022-12-26T04:53:36;12.80;62.80
17208;DHT22;8720;48.488;9.202;2022-12-26T04:56:04;12.90;62.60
17208;DHT22;8720;48.488;9.202;2022-12-26T04:58:31;12.90;62.50
17208;DHT22;8720;48.488;9.202;2022-12-26T05:01:00;12.90;62.40
17208;DHT22;8720;48.488;9.202;2022-12-26T05:03:41;13.00;62.00
17208;DHT22;8720;48.488;9.202;2022-12-26T05:06:26;13.00;62.20
17208;DHT22;8720;48.488;9.202;2022-12-26T05:09:08;13.00;62.10
17208;DHT22;8720;48.488;9.202;2022-12-26T05:11:54;13.00;61.40
17208;DHT22;8720;48.488;9.202;2022-12-26T05:14:22;13.00;61.90
17208;DHT22;8720;48.488;9.202;2022-12-26T05:16:50;13.10;61.90
17208;DHT22;8720;48.488;9.202;2022-12-26T05:19:35;13.10;61.40
17208;DHT22;8720;48.488;9.202;2022-12-26T05:22:20;13.10;61.90
17208;DHT22;8720;48.488;9.202;2022-12-26T05:25:12;13.20;61.80
17208;DHT22;8720;48.488;9.202;2022-12-26T05:28:00;13.20;60.70
17208;DHT22;8720;48.488;9.202;2022-12-26T05:30:45;13.20;62.00
17208;DHT22;8720;48.488;9.202;2022-12-26T05:33:14;13.30;62.00
17208;DHT22;8720;48.488;9.202;2022-12-26T05:35:58;13.30;61.20
17208;DHT22;8720;48.488;9.202;2022-12-26T05:38:25;13.30;61.50
17208;DHT22;8720;48.488;9.202;2022-12-26T05:40:52;13.30;61.30
17208;DHT22;8720;48.488;9.202;2022-12-26T05:43:20;13.30;61.30
17208;DHT22;8720;48.488;9.202;2022-12-26T05:45:47;13.40;61.00
17208;DHT22;8720;48.488;9.202;2022-12-26T05:48:18;13.30;60.80
17208;DHT22;8720;48.488;9.202;2022-12-26T05:50:45;13.30;60.50
17208;DHT22;8720;48.488;9.202;2022-12-26T05:53:12;13.40;60.90
17208;DHT22;8720;48.488;9.202;2022-12-26T05:55:39;13.40;60.80
17208;DHT22;8720;48.488;9.202;2022-12-26T05:58:07;13.40;60.60
17208;DHT22;8720;48.488;9.202;2022-12-26T06:00:34;13.40;60.60
17208;DHT22;8720;48.488;9.202;2022-12-26T06:03:01;13.40;60.60
17208;DHT22;8720;48.488;9.202;2022-12-26T06:05:30;13.30;60.20
17208;DHT22;8720;48.488;9.202;2022-12-26T06:07:57;13.30;60.00
17208;DHT22;8720;48.488;9.202;2022-12-26T06:10:24;13.30;60.40
17208;DHT22;8720;48.488;9.202;2022-12-26T06:12:54;13.30;60.30
17208;DHT22;8720;48.488;9.202;2022-12-26T06:15:21;13.30;60.40
17208;DHT22;8720;48.488;9.202;2022-12-26T06:17:49;13.30;60.40
17208;DHT22;8720;48.488;9.202;2022-12-26T06:20:17;13.40;60.50
17208;DHT22;8720;48.488;9.202;2022-12-26T06:22:48;13.40;60.50
17208;DHT22;8720;48.488;9.202;2022-12-26T06:25:15;13.40;60.00
17208;DHT22;8720;48.488;9.202;2022-12-26T06:27:43;13.40;60.20
17208;DHT22;8720;48.488;9.202;2022-12-26T06:30:10;13.30;60.00
17208;DHT22;8720;48.488;9.202;2022-12-26T06:32:38;13.30;59.90
17208;DHT22;8720;48.488;9.202;2022-12-26T06:35:06;13.30;60.50
17208;DHT22;8720;48.488;9.202;2022-12-26T06:37:34;13.30;59.70
17208;DHT22;8720;48.488;9.202;2022-12-26T06:40:03;13.30;59.80
17208;DHT22;8720;48.488;9.202;2022-12-26T06:42:31;13.20;59.40
17208;DHT22;8720;48.488;9.202;2022-12-26T06:44:58;13.20;60.30
17208;DHT22;8720;48.488;9.202;2022-12-26T06:47:25;13.20;59.80
17208;DHT22;8720;48.488;9.202;2022-12-26T06:49:52;13.10;59.80
17208;DHT22;8720;48.488;9.202;2022-12-26T06:52:19;13.10;59.80
17208;DHT22;8720;48.488;9.202;2022-12-26T06:54:47;13.00;59.70
17208;DHT22;8720;48.488;9.202;2022-12-26T06:57:15;13.00;59.80
17208;DHT22;8720;48.488;9.202;2022-12-26T06:59:42;13.00;59.60
17208;DHT22;8720;48.488;9.202;2022-12-26T07:02:10;13.00;60.00
17208;DHT22;8720;48.488;9.202;2022-12-26T07:04:37;13.00;59.90
17208;DHT22;8720;48.488;9.202;2022-12-26T07:07:04;13.00;59.90
17208;DHT22;8720;48.488;9.202;2022-12-26T07:09:32;12.90;59.70
17208;DHT22;8720;48.488;9.202;2022-12-26T07:11:59;12.90;60.00
17208;DHT22;8720;48.488;9.202;2022-12-26T07:14:28;12.80;60.00
17208;DHT22;8720;48.488;9.202;2022-12-26T07:16:56;12.80;59.70
17208;DHT22;8720;48.488;9.202;2022-12-26T07:19:23;12.80;60.70
17208;DHT22;8720;48.488;9.202;2022-12-26T07:21:50;12.80;60.20
17208;DHT22;8720;48.488;9.202;2022-12-26T07:24:19;12.80;60.20
17208;DHT22;8720;48.488;9.202;2022-12-26T07:26:48;12.70;60.00
17208;DHT22;8720;48.488;9.202;2022-12-26T07:29:15;12.70;60.10
17208;DHT22;8720;48.488;9.202;2022-12-26T07:31:44;12.70;60.40
17208;DHT22;8720;48.488;9.202;2022-12-26T07:34:11;12.70;60.20
17208;DHT22;8720;48.488;9.202;2022-12-26T07:36:39;12.70;60.50
17208;DHT22;8720;48.488;9.202;2022-12-26T07:39:07;12.80;60.50
17208;DHT22;8720;48.488;9.202;2022-12-26T07:41:35;12.80;60.60
17208;DHT22;8720;48.488;9.202;2022-12-26T07:44:19;12.80;60.60
17208;DHT22;8720;48.488;9.202;2022-12-26T07:46:48;12.80;60.60
17208;DHT22;8720;48.488;9.202;2022-12-26T07:49:16;12.80;60.20
17208;DHT22;8720;48.488;9.202;2022-12-26T07:51:43;12.80;60.40
17208;DHT22;8720;48.488;9.202;2022-12-26T07:54:10;12.80;60.30
17208;DHT22;8720;48.488;9.202;2022-12-26T07:56:38;12.80;60.10
17208;DHT22;8720;48.488;9.202;2022-12-26T07:59:05;12.80;60.90
17208;DHT22;8720;48.488;9.202;2022-12-26T08:01:33;12.80;60.60
17208;DHT22;8720;48.488;9.202;2022-12-26T08:04:01;12.80;60.60
17208;DHT22;8720;48.488;9.202;2022-12-26T08:06:29;12.90;60.50
17208;DHT22;8720;48.488;9.202;2022-12-26T08:08:57;12.90;60.80
17208;DHT22;8720;48.488;9.202;2022-12-26T08:11:24;12.90;60.80
17208;DHT22;8720;48.488;9.202;2022-12-26T08:13:51;13.00;60.90
17208;DHT22;8720;48.488;9.202;2022-12-26T08:16:19;13.00;60.80
17208;DHT22;8720;48.488;9.202;2022-12-26T08:18:47;13.00;60.70
17208;DHT22;8720;48.488;9.202;2022-12-26T08:21:15;13.10;60.80
17208;DHT22;8720;48.488;9.202;2022-12-26T08:23:43;13.10;60.40
17208;DHT22;8720;48.488;9.202;2022-12-26T08:26:13;13.20;61.00
17208;DHT22;8720;48.488;9.202;2022-12-26T08:28:47;13.20;61.20
17208;DHT22;8720;48.488;9.202;2022-12-26T08:31:15;13.30;61.40
17208;DHT22;8720;48.488;9.202;2022-12-26T08:33:44;13.30;61.40
17208;DHT22;8720;48.488;9.202;2022-12-26T08:36:12;13.30;61.30
17208;DHT22;8720;48.488;9.202;2022-12-26T08:38:43;13.30;61.10
17208;DHT22;8720;48.488;9.202;2022-12-26T08:41:10;13.40;61.00
17208;DHT22;8720;48.488;9.202;2022-12-26T08:43:37;13.40;61.30
17208;DHT22;8720;48.488;9.202;2022-12-26T08:46:08;13.40;61.50
17208;DHT22;8720;48.488;9.202;2022-12-26T08:48:39;13.50;61.40
17208;DHT22;8720;48.488;9.202;2022-12-26T08:51:08;13.50;61.20
17208;DHT22;8720;48.488;9.202;2022-12-26T08:53:38;13.50;61.60
17208;DHT22;8720;48.488;9.202;2022-12-26T08:56:10;13.50;61.70
17208;DHT22;8720;48.488;9.202;2022-12-26T08:58:39;13.50;62.20
17208;DHT22;8720;48.488;9.202;2022-12-26T09:01:08;13.40;61.90
17208;DHT22;8720;48.488;9.202;2022-12-26T09:03:41;13.40;61.90
17208;DHT22;8720;48.488;9.202;2022-12-26T09:06:10;13.40;62.10
17208;DHT22;8720;48.488;9.202;2022-12-26T09:08:41;13.40;62.60
17208;DHT22;8720;48.488;9.202;2022-12-26T09:11:12;13.30;63.00
17208;DHT22;8720;48.488;9.202;2022-12-26T09:13:41;13.30;63.10
17208;DHT22;8720;48.488;9.202;2022-12-26T09:16:12;13.30;63.50
17208;DHT22;8720;48.488;9.202;2022-12-26T09:18:41;13.30;63.70
17208;DHT22;8720;48.488;9.202;2022-12-26T09:21:10;13.20;64.10
17208;DHT22;8720;48.488;9.202;2022-12-26T09:23:40;13.20;64.20
17208;DHT22;8720;48.488;9.202;2022-12-26T09:26:11;13.20;64.40
17208;DHT22;8720;48.488;9.202;2022-12-26T09:28:40;13.20;64.50
17208;DHT22;8720;48.488;9.202;2022-12-26T09:31:11;13.10;64.70
17208;DHT22;8720;48.488;9.202;2022-12-26T09:33:40;13.10;64.90
17208;DHT22;8720;48.488;9.202;2022-12-26T09:36:09;13.10;65.40
17208;DHT22;8720;48.488;9.202;2022-12-26T09:38:38;13.10;65.70
17208;DHT22;8720;48.488;9.202;2022-12-26T09:41:17;13.00;66.10
17208;DHT22;8720;48.488;9.202;2022-12-26T09:43:59;13.10;67.10
17208;DHT22;8720;48.488;9.202;2022-12-26T09:46:33;13.00;66.70
17208;DHT22;8720;48.488;9.202;2022-12-26T09:49:12;13.10;67.40
17208;DHT22;8720;48.488;9.202;2022-12-26T09:51:47;13.10;67.70
17208;DHT22;8720;48.488;9.202;2022-12-26T09:54:21;13.10;67.80
17208;DHT22;8720;48.488;9.202;2022-12-26T09:56:58;13.10;68.00
17208;DHT22;8720;48.488;9.202;2022-12-26T09:59:31;13.20;68.10
17208;DHT22;8720;48.488;9.202;2022-12-26T10:02:12;13.20;68.30
17208;DHT22;8720;48.488;9.202;2022-12-26T10:04:43;13.20;68.30
17208;DHT22;8720;48.488;9.202;2022-12-26T10:07:19;13.20;68.60
17208;DHT22;8720;48.488;9.202;2022-12-26T10:09:57;13.20;68.40
17208;DHT22;8720;48.488;9.202;2022-12-26T10:12:50;13.20;68.80
17208;DHT22;8720;48.488;9.202;2022-12-26T10:15:33;13.20;68.80
17208;DHT22;8720;48.488;9.202;2022-12-26T10:18:19;13.30;69.40
17208;DHT22;8720;48.488;9.202;2022-12-26T10:21:10;13.30;69.50
17208;DHT22;8720;48.488;9.202;2022-12-26T10:23:48;13.30;69.40
17208;DHT22;8720;48.488;9.202;2022-12-26T10:26:23;13.30;69.80
17208;DHT22;8720;48.488;9.202;2022-12-26T10:29:03;13.30;70.00
17208;DHT22;8720;48.488;9.202;2022-12-26T10:31:41;13.30;69.90
17208;DHT22;8720;48.488;9.202;2022-12-26T10:34:16;13.30;70.10
17208;DHT22;8720;48.488;9.202;2022-12-26T10:36:48;13.30;70.00
17208;DHT22;8720;48.488;9.202;2022-12-26T10:39:21;13.30;70.20
17208;DHT22;8720;48.488;9.202;2022-12-26T10:41:54;13.30;70.10
17208;DHT22;8720;48.488;9.202;2022-12-26T10:44:27;13.30;70.40
17208;DHT22;8720;48.488;9.202;2022-12-26T10:47:18;13.30;70.60
17208;DHT22;8720;48.488;9.202;2022-12-26T10:49:49;13.30;70.50
17208;DHT22;8720;48.488;9.202;2022-12-26T10:52:22;13.30;71.20
17208;DHT22;8720;48.488;9.202;2022-12-26T10:54:54;13.30;70.90
17208;DHT22;8720;48.488;9.202;2022-12-26T10:57:26;13.30;71.10
17208;DHT22;8720;48.488;9.202;2022-12-26T10:59:57;13.30;71.10
17208;DHT22;8720;48.488;9.202;2022-12-26T11:02:29;13.30;71.30
17208;DHT22;8720;48.488;9.202;2022-12-26T11:05:00;13.30;71.30
17208;DHT22;8720;48.488;9.202;2022-12-26T11:07:32;13.30;71.50
17208;DHT22;8720;48.488;9.202;2022-12-26T11:10:04;13.30;71.70
17208;DHT22;8720;48.488;9.202;2022-12-26T11:12:46;13.30;71.70
17208;DHT22;8720;48.488;9.202;2022-12-26T11:15:22;13.30;71.80
17208;DHT22;8720;48.488;9.202;2022-12-26T11:18:06;13.30;71.30
17208;DHT22;8720;48.488;9.202;2022-12-26T11:20:42;13.30;71.10
17208;DHT22;8720;48.488;9.202;2022-12-26T11:23:27;13.30;71.80
17208;DHT22;8720;48.488;9.202;2022-12-26T11:25:57;13.30;71.30
17208;DHT22;8720;48.488;9.202;2022-12-26T11:28:30;13.30;72.10
17208;DHT22;8720;48.488;9.202;2022-12-26T11:31:02;13.30;72.10
17208;DHT22;8720;48.488;9.202;2022-12-26T11:33:34;13.40;72.10
17208;DHT22;8720;48.488;9.202;2022-12-26T11:36:10;13.40;72.10
17208;DHT22;8720;48.488;9.202;2022-12-26T11:38:50;13.40;71.70
17208;DHT22;8720;48.488;9.202;2022-12-26T11:41:33;13.40;71.50
17208;DHT22;8720;48.488;9.202;2022-12-26T11:44:22;13.40;70.80
17208;DHT22;8720;48.488;9.202;2022-12-26T11:46:56;13.40;70.70
17208;DHT22;8720;48.488;9.202;2022-12-26T11:49:29;13.40;71.10
17208;DHT22;8720;48.488;9.202;2022-12-26T11:52:01;13.40;71.10
17208;DHT22;8720;48.488;9.202;2022-12-26T11:54:50;13.40;71.10
17208;DHT22;8720;48.488;9.202;2022-12-26T11:57:19;13.40;70.90
17208;DHT22;8720;48.488;9.202;2022-12-26T11:59:49;13.40;70.50
17208;DHT22;8720;48.488;9.202;2022-12-26T12:02:29;13.40;70.50
17208;DHT22;8720;48.488;9.202;2022-12-26T12:05:00;13.40;69.60
17208;DHT22;8720;48.488;9.202;2022-12-26T12:14:04;13.40;69.60
17208;DHT22;8720;48.488;9.202;2022-12-26T12:16:49;13.40;69.10
17208;DHT22;8720;48.488;9.202;2022-12-26T12:19:40;13.40;69.00
17208;DHT22;8720;48.488;9.202;2022-12-26T12:25:50;13.40;68.20
17208;DHT22;8720;48.488;9.202;2022-12-26T12:31:55;13.30;67.70
17208;DHT22;8720;48.488;9.202;2022-12-26T12:34:39;13.30;68.20
17208;DHT22;8720;48.488;9.202;2022-12-26T12:37:31;13.30;69.10
17208;DHT22;8720;48.488;9.202;2022-12-26T12:40:21;13.20;68.30
17208;DHT22;8720;48.488;9.202;2022-12-26T12:43:03;13.20;68.20
17208;DHT22;8720;48.488;9.202;2022-12-26T12:45:43;13.20;68.40
17208;DHT22;8720;48.488;9.202;2022-12-26T12:48:38;13.20;68.30
17208;DHT22;8720;48.488;9.202;2022-12-26T12:51:20;13.10;67.70
17208;DHT22;8720;48.488;9.202;2022-12-26T12:54:20;13.10;68.00
17208;DHT22;8720;48.488;9.202;2022-12-26T12:57:22;13.10;68.10
17208;DHT22;8720;48.488;9.202;2022-12-26T13:00:02;13.10;67.90
17208;DHT22;8720;48.488;9.202;2022-12-26T13:02:42;13.10;68.00
17208;DHT22;8720;48.488;9.202;2022-12-26T13:05:21;13.10;67.90
17208;DHT22;8720;48.488;9.202;2022-12-26T13:08:03;13.10;68.00
17208;DHT22;8720;48.488;9.202;2022-12-26T13:10:48;13.10;67.60
17208;DHT22;8720;48.488;9.202;2022-12-26T13:13:24;13.10;67.50
17208;DHT22;8720;48.488;9.202;2022-12-26T13:15:59;13.10;68.50
17208;DHT22;8720;48.488;9.202;2022-12-26T13:18:36;13.10;68.00
17208;DHT22;8720;48.488;9.202;2022-12-26T13:21:11;13.10;67.90
17208;DHT22;8720;48.488;9.202;2022-12-26T13:23:43;13.20;68.00
17208;DHT22;8720;48.488;9.202;2022-12-26T13:26:36;13.20;68.00
17208;DHT22;8720;48.488;9.202;2022-12-26T13:29:11;13.20;67.30
17208;DHT22;8720;48.488;9.202;2022-12-26T13:31:44;13.20;66.90
17208;DHT22;8720;48.488;9.202;2022-12-26T13:34:15;13.20;67.60
17208;DHT22;8720;48.488;9.202;2022-12-26T13:36:45;13.20;66.90
17208;DHT22;8720;48.488;9.202;2022-12-26T13:39:35;13.20;67.40
17208;DHT22;8720;48.488;9.202;2022-12-26T13:42:18;13.20;65.50
17208;DHT22;8720;48.488;9.202;2022-12-26T13:45:47;13.20;65.40
17208;DHT22;8720;48.488;9.202;2022-12-26T13:55:19;13.20;66.20
17208;DHT22;8720;48.488;9.202;2022-12-26T13:58:12;13.20;64.80
17208;DHT22;8720;48.488;9.202;2022-12-26T14:00:59;13.20;65.10
17208;DHT22;8720;48.488;9.202;2022-12-26T14:03:50;13.20;65.60
17208;DHT22;8720;48.488;9.202;2022-12-26T14:06:49;13.30;65.20
17208;DHT22;8720;48.488;9.202;2022-12-26T14:09:56;13.30;64.80
17208;DHT22;8720;48.488;9.202;2022-12-26T14:12:42;13.30;64.20
17208;DHT22;8720;48.488;9.202;2022-12-26T14:15:26;13.20;64.10
17208;DHT22;8720;48.488;9.202;2022-12-26T14:18:08;13.20;64.90
17208;DHT22;8720;48.488;9.202;2022-12-26T14:20:52;13.20;64.30
17208;DHT22;8720;48.488;9.202;2022-12-26T14:23:39;13.20;64.60
17208;DHT22;8720;48.488;9.202;2022-12-26T14:26:20;13.20;63.90
17208;DHT22;8720;48.488;9.202;2022-12-26T14:29:04;13.20;64.00
17208;DHT22;8720;48.488;9.202;2022-12-26T14:31:44;13.20;64.40
17208;DHT22;8720;48.488;9.202;2022-12-26T14:34:33;13.20;64.50
17208;DHT22;8720;48.488;9.202;2022-12-26T14:37:17;13.20;63.70
17208;DHT22;8720;48.488;9.202;2022-12-26T14:40:01;13.30;64.80
17208;DHT22;8720;48.488;9.202;2022-12-26T14:43:03;13.20;63.70
17208;DHT22;8720;48.488;9.202;2022-12-26T14:45:45;13.30;62.70
17208;DHT22;8720;48.488;9.202;2022-12-26T14:48:48;13.30;63.70
17208;DHT22;8720;48.488;9.202;2022-12-26T14:51:38;13.30;62.40
17208;DHT22;8720;48.488;9.202;2022-12-26T14:57:43;13.30;62.70
17208;DHT22;8720;48.488;9.202;2022-12-26T15:00:27;13.20;61.90
17208;DHT22;8720;48.488;9.202;2022-12-26T15:03:40;13.20;63.30
17208;DHT22;8720;48.488;9.202;2022-12-26T15:09:46;13.20;62.00
17208;DHT22;8720;48.488;9.202;2022-12-26T15:16:16;13.20;61.60
17208;DHT22;8720;48.488;9.202;2022-12-26T15:22:54;13.10;61.60
17208;DHT22;8720;48.488;9.202;2022-12-26T15:26:00;13.10;61.30
17208;DHT22;8720;48.488;9.202;2022-12-26T15:32:08;13.10;61.40
17208;DHT22;8720;48.488;9.202;2022-12-26T15:35:02;13.00;62.20
17208;DHT22;8720;48.488;9.202;2022-12-26T15:38:02;13.00;61.20
17208;DHT22;8720;48.488;9.202;2022-12-26T15:40:43;13.00;61.20
17208;DHT22;8720;48.488;9.202;2022-12-26T15:43:34;13.00;62.60
17208;DHT22;8720;48.488;9.202;2022-12-26T15:46:19;13.00;61.40
17208;DHT22;8720;48.488;9.202;2022-12-26T15:49:05;13.00;62.30
17208;DHT22;8720;48.488;9.202;2022-12-26T15:51:54;13.00;61.60
17208;DHT22;8720;48.488;9.202;2022-12-26T15:54:48;13.00;62.80
17208;DHT22;8720;48.488;9.202;2022-12-26T15:57:41;13.00;61.80
17208;DHT22;8720;48.488;9.202;2022-12-26T16:00:16;13.00;62.40
17208;DHT22;8720;48.488;9.202;2022-12-26T16:03:12;13.00;62.80
17208;DHT22;8720;48.488;9.202;2022-12-26T16:05:53;13.00;62.30
17208;DHT22;8720;48.488;9.202;2022-12-26T16:08:58;13.00;62.20
17208;DHT22;8720;48.488;9.202;2022-12-26T16:11:48;13.00;61.40
17208;DHT22;8720;48.488;9.202;2022-12-26T16:14:31;13.00;61.80
17208;DHT22;8720;48.488;9.202;2022-12-26T16:17:17;13.00;61.90
17208;DHT22;8720;48.488;9.202;2022-12-26T16:19:48;13.00;61.50
17208;DHT22;8720;48.488;9.202;2022-12-26T16:22:19;12.90;61.70
17208;DHT22;8720;48.488;9.202;2022-12-26T16:25:15;12.90;62.10
17208;DHT22;8720;48.488;9.202;2022-12-26T16:27:47;12.90;62.30
17208;DHT22;8720;48.488;9.202;2022-12-26T16:30:19;13.00;62.20
17208;DHT22;8720;48.488;9.202;2022-12-26T16:32:49;13.00;62.40
17208;DHT22;8720;48.488;9.202;2022-12-26T16:35:20;13.00;62.60
17208;DHT22;8720;48.488;9.202;2022-12-26T16:37:53;13.00;62.20
17208;DHT22;8720;48.488;9.202;2022-12-26T16:40:24;13.00;62.50
17208;DHT22;8720;48.488;9.202;2022-12-26T16:42:59;13.00;62.50
17208;DHT22;8720;48.488;9.202;2022-12-26T16:45:31;13.00;62.20
17208;DHT22;8720;48.488;9.202;2022-12-26T16:48:00;13.00;62.40
17208;DHT22;8720;48.488;9.202;2022-12-26T16:50:45;13.00;62.60
17208;DHT22;8720;48.488;9.202;2022-12-26T16:53:16;12.90;61.40
17208;DHT22;8720;48.488;9.202;2022-12-26T16:55:47;12.90;62.30
17208;DHT22;8720;48.488;9.202;2022-12-26T16:58:21;12.90;62.30
17208;DHT22;8720;48.488;9.202;2022-12-26T17:01:00;12.90;62.00
17208;DHT22;8720;48.488;9.202;2022-12-26T17:03:42;12.80;62.40
17208;DHT22;8720;48.488;9.202;2022-12-26T17:06:17;12.80;61.60
17208;DHT22;8720;48.488;9.202;2022-12-26T17:08:51;12.80;62.50
17208;DHT22;8720;48.488;9.202;2022-12-26T17:11:26;12.70;62.40
17208;DHT22;8720;48.488;9.202;2022-12-26T17:13:57;12.70;62.70
17208;DHT22;8720;48.488;9.202;2022-12-26T17:16:28;12.70;62.60
17208;DHT22;8720;48.488;9.202;2022-12-26T17:19:08;12.70;62.50
17208;DHT22;8720;48.488;9.202;2022-12-26T17:21:37;12.70;61.80
17208;DHT22;8720;48.488;9.202;2022-12-26T17:24:21;12.70;63.00
17208;DHT22;8720;48.488;9.202;2022-12-26T17:27:05;12.60;62.00
17208;DHT22;8720;48.488;9.202;2022-12-26T17:29:48;12.60;62.80